sensor_id;sensor_type;location;lat;lon;timestamp;pressure;altitude;pressure_sealevel;temperature;humidity
69593;BME280;56796;50.122;14.468;2023-03-04T00:18:33;983;;;-1.78;93.65
69593;BME280;56796;50.122;14.468;2023-03-04T00:37:57;983.03;;;-1.74;93.89
69593;BME280;56796;50.122;14.468;2023-03-04T00:57:22;982.92;;;-1.78;94
69593;BME280;56796;50.122;14.468;2023-03-04T01:16:48;982.7;;;-1.68;93.89
69593;BME280;56796;50.122;14.468;2023-03-04T01:36:13;982.51;;;-1.78;93.94
69593;BME280;56796;50.122;14.468;2023-03-04T01:55:38;982.23;;;-1.81;94.15
69593;BME280;56796;50.122;14.468;2023-03-04T02:15:03;982.02;;;-1.95;94.18
69593;BME280;56796;50.122;14.468;2023-03-04T02:34:28;981.8;;;-2.01;94.24
69593;BME280;56796;50.122;14.468;2023-03-04T02:53:52;981.55;;;-1.96;94.48
69593;BME280;56796;50.122;14.468;2023-03-04T03:13:17;981.53;;;-2.18;94.71
69593;BME280;56796;50.122;14.468;2023-03-04T03:32:42;981.59;;;-2.35;95.17
69593;BME280;56796;50.122;14.468;2023-03-04T03:52:07;981.43;;;-2.39;95.3
69593;BME280;56796;50.122;14.468;2023-03-04T04:11:32;981.35;;;-2.61;95.28
69593;BME280;56796;50.122;14.468;2023-03-04T04:30:58;981.37;;;-2.28;95.04
69593;BME280;56796;50.122;14.468;2023-03-04T04:50:26;981.26;;;-2.65;94.6
69593;BME280;56796;50.122;14.468;2023-03-04T05:09:43;981.27;;;-2.97;94.75
69593;BME280;56796;50.122;14.468;2023-03-04T05:29:07;981.39;;;-3.02;95.25
69593;BME280;56796;50.122;14.468;2023-03-04T05:48:31;981.51;;;-2.68;95.43
69593;BME280;56796;50.122;14.468;2023-03-04T06:07:58;981.66;;;-2.41;94.85
69593;BME280;56796;50.122;14.468;2023-03-04T06:27:25;981.75;;;-1.44;93.61
69593;BME280;56796;50.122;14.468;2023-03-04T06:46:52;981.9;;;-1.68;92.57
69593;BME280;56796;50.122;14.468;2023-03-04T07:06:20;981.99;;;-1.24;91.25
69593;BME280;56796;50.122;14.468;2023-03-04T07:25:47;981.89;;;-0.61;90.77
69593;BME280;56796;50.122;14.468;2023-03-04T07:45:21;981.77;;;1.88;81.74
69593;BME280;56796;50.122;14.468;2023-03-04T08:04:47;981.82;;;0.79;83.45
69593;BME280;56796;50.122;14.468;2023-03-04T08:24:14;981.86;;;1;83.77
69593;BME280;56796;50.122;14.468;2023-03-04T08:43:32;981.8;;;1.21;83.66
69593;BME280;56796;50.122;14.468;2023-03-04T09:02:58;981.82;;;1.67;83.14
69593;BME280;56796;50.122;14.468;2023-03-04T09:22:24;981.78;;;2;82.13
69593;BME280;56796;50.122;14.468;2023-03-04T09:41:51;981.72;;;2.15;80.3
69593;BME280;56796;50.122;14.468;2023-03-04T10:01:19;981.53;;;2.31;79.65
69593;BME280;56796;50.122;14.468;2023-03-04T10:20:47;981.44;;;2.34;79.05
69593;BME280;56796;50.122;14.468;2023-03-04T10:59:39;980.9;;;3.3;76.56
69593;BME280;56796;50.122;14.468;2023-03-04T11:19:09;980.6;;;3.87;75.09
69593;BME280;56796;50.122;14.468;2023-03-04T11:38:36;980.44;;;4.34;74.5
69593;BME280;56796;50.122;14.468;2023-03-04T11:57:56;980.31;;;4.42;72.79
69593;BME280;56796;50.122;14.468;2023-03-04T12:17:23;980.02;;;4.69;71.96
69593;BME280;56796;50.122;14.468;2023-03-04T12:36:48;979.95;;;4.94;72.57
69593;BME280;56796;50.122;14.468;2023-03-04T12:56:18;979.87;;;5.1;71.71
69593;BME280;56796;50.122;14.468;2023-03-04T13:15:39;979.92;;;4.88;72.42
69593;BME280;56796;50.122;14.468;2023-03-04T13:54:31;979.62;;;4.71;73.34
69593;BME280;56796;50.122;14.468;2023-03-04T14:13:58;979.57;;;5.03;73.41
69593;BME280;56796;50.122;14.468;2023-03-04T14:33:24;979.5;;;4.85;73.43
69593;BME280;56796;50.122;14.468;2023-03-04T15:12:20;979.24;;;4.75;73.1
69593;BME280;56796;50.122;14.468;2023-03-04T15:31:31;979.15;;;4.71;72.94
69593;BME280;56796;50.122;14.468;2023-03-04T15:50:56;978.96;;;4.65;73.2
69593;BME280;56796;50.122;14.468;2023-03-04T16:10:25;978.87;;;4.58;73.47
69593;BME280;56796;50.122;14.468;2023-03-04T16:29:43;978.93;;;4.46;74.14
69593;BME280;56796;50.122;14.468;2023-03-04T16:49:08;978.89;;;4.34;74.69
69593;BME280;56796;50.122;14.468;2023-03-04T17:08:33;978.91;;;4.3;75.01
69593;BME280;56796;50.122;14.468;2023-03-04T17:27:59;978.88;;;4.25;75.2
69593;BME280;56796;50.122;14.468;2023-03-04T17:47:23;978.92;;;4.17;75.71
69593;BME280;56796;50.122;14.468;2023-03-04T18:06:48;978.88;;;4.06;76.47
69593;BME280;56796;50.122;14.468;2023-03-04T18:26:14;978.9;;;3.88;77.79
69593;BME280;56796;50.122;14.468;2023-03-04T18:45:39;978.95;;;3.76;78.54
69593;BME280;56796;50.122;14.468;2023-03-04T19:05:05;978.99;;;3.69;79.18
69593;BME280;56796;50.122;14.468;2023-03-04T19:24:30;979.02;;;3.6;79.92
69593;BME280;56796;50.122;14.468;2023-03-04T19:43:56;979.04;;;3.56;80.51
69593;BME280;56796;50.122;14.468;2023-03-04T20:03:22;979.15;;;3.45;81.28
69593;BME280;56796;50.122;14.468;2023-03-04T20:22:51;979.13;;;3.36;81.9
69593;BME280;56796;50.122;14.468;2023-03-04T20:42:11;979.2;;;3.31;82.39
69593;BME280;56796;50.122;14.468;2023-03-04T21:01:29;979.13;;;3.23;82.46
69593;BME280;56796;50.122;14.468;2023-03-04T21:20:55;979.17;;;3.11;82.79
69593;BME280;56796;50.122;14.468;2023-03-04T21:40:20;979.17;;;3.11;83.07
69593;BME280;56796;50.122;14.468;2023-03-04T21:59:46;979.08;;;3.07;83.39
69593;BME280;56796;50.122;14.468;2023-03-04T22:19:13;978.88;;;2.96;84.57
69593;BME280;56796;50.122;14.468;2023-03-04T22:38:38;978.89;;;2.83;86.42
69593;BME280;56796;50.122;14.468;2023-03-04T22:58:04;979.04;;;2.59;90.11
69593;BME280;56796;50.122;14.468;2023-03-04T23:17:30;978.83;;;2.61;90.63
69593;BME280;56796;50.122;14.468;2023-03-04T23:36:55;978.79;;;2.57;91.23
69593;BME280;56796;50.122;14.468;2023-03-04T23:56:22;978.7;;;2.58;91.8
